Time;durP1;ratioP1;P1;durP2;ratioP2;P2;SDS_P1;SDS_P2;PMS_P1;PMS_P2;Temp;Humidity;BMP_temperature;BMP_pressure;BME280_temperature;BME280_humidity;BME280_pressure;Samples;Min_cycle;Max_cycle;Signal;HPM_P1;HPM_P2
2022/11/19 00:02:14;;;;;;;23.67;11.15;;;;;;;;;;6182484;28;20062;-78
2022/11/19 00:05:14;;;;;;;25.20;12.35;;;;;;;;;;6184604;28;20033;-79
2022/11/19 00:08:16;;;;;;;26.73;12.33;;;;;;;;;;6199866;28;20026;-78
2022/11/19 00:14:40;;;;;;;24.00;12.57;;;;;;;;;;6199816;28;20034;-79
2022/11/19 00:17:40;;;;;;;21.48;12.73;;;;;;;;;;6199359;28;20021;-79
2022/11/19 00:20:43;;;;;;;25.20;12.55;;;;;;;;;;6201909;28;20081;-80
2022/11/19 00:23:43;;;;;;;22.52;12.50;;;;;;;;;;6185315;28;20033;-79
2022/11/19 00:26:47;;;;;;;24.37;13.80;;;;;;;;;;6185588;28;20022;-79
2022/11/19 00:29:47;;;;;;;20.38;11.35;;;;;;;;;;6203661;28;20245;-79
2022/11/19 00:32:47;;;;;;;22.33;13.13;;;;;;;;;;6197540;28;20026;-79
2022/11/19 00:35:47;;;;;;;26.53;13.77;;;;;;;;;;6199905;28;20477;-80
2022/11/19 00:38:47;;;;;;;20.85;11.40;;;;;;;;;;6200077;28;20026;-80
2022/11/19 00:41:48;;;;;;;21.33;12.18;;;;;;;;;;6199574;28;20496;-79
2022/11/19 00:44:48;;;;;;;25.90;13.00;;;;;;;;;;6183019;28;20022;-79
2022/11/19 00:47:48;;;;;;;25.53;13.60;;;;;;;;;;6200594;28;20033;-79
2022/11/19 00:50:49;;;;;;;30.53;13.00;;;;;;;;;;6201407;28;20029;-79
2022/11/19 00:53:50;;;;;;;19.98;10.60;;;;;;;;;;6199668;28;20518;-79
2022/11/19 00:56:50;;;;;;;27.20;12.80;;;;;;;;;;6200569;28;20487;-79
2022/11/19 00:59:50;;;;;;;21.20;12.93;;;;;;;;;;6181169;28;20030;-77
2022/11/19 01:02:51;;;;;;;23.93;13.80;;;;;;;;;;6197361;28;20100;-78
2022/11/19 01:05:51;;;;;;;23.80;14.18;;;;;;;;;;6198276;28;20049;-77
2022/11/19 01:08:52;;;;;;;28.40;14.53;;;;;;;;;;6198776;28;20058;-77
2022/11/19 01:11:52;;;;;;;26.23;14.23;;;;;;;;;;6197522;28;20018;-77
2022/11/19 01:14:52;;;;;;;26.37;14.17;;;;;;;;;;6198086;28;20133;-79
2022/11/19 01:17:52;;;;;;;25.57;13.80;;;;;;;;;;6199446;28;20431;-78
2022/11/19 01:20:53;;;;;;;26.40;13.23;;;;;;;;;;6199997;28;20041;-79
2022/11/19 01:23:53;;;;;;;25.73;14.43;;;;;;;;;;6206620;28;20395;-77
2022/11/19 01:26:53;;;;;;;26.67;14.43;;;;;;;;;;6188087;28;20396;-76
2022/11/19 01:29:54;;;;;;;31.60;14.93;;;;;;;;;;6206328;28;20026;-76
2022/11/19 01:32:54;;;;;;;26.25;15.07;;;;;;;;;;6187227;28;20057;-76
2022/11/19 01:35:55;;;;;;;27.08;13.27;;;;;;;;;;6205818;28;20069;-76
2022/11/19 01:38:55;;;;;;;33.15;16.02;;;;;;;;;;6206024;28;20084;-77
2022/11/19 01:41:56;;;;;;;33.80;16.23;;;;;;;;;;6205531;28;20038;-77
2022/11/19 01:45:00;;;;;;;33.90;15.90;;;;;;;;;;6205674;28;20461;-76
2022/11/19 01:48:03;;;;;;;33.95;18.95;;;;;;;;;;6205740;28;20014;-77
2022/11/19 01:51:07;;;;;;;31.65;17.05;;;;;;;;;;6206014;28;20343;-77
2022/11/19 01:54:11;;;;;;;31.08;17.52;;;;;;;;;;6205386;28;20398;-76
2022/11/19 01:57:13;;;;;;;30.35;16.63;;;;;;;;;;6205878;28;20019;-77
2022/11/19 02:00:13;;;;;;;;;;;;;;;;;;6207917;28;20042;-77
2022/11/19 02:03:14;;;;;;;28.45;16.65;;;;;;;;;;6205032;28;19912;-76
2022/11/19 02:06:14;;;;;;;29.17;17.17;;;;;;;;;;6205821;28;20560;-76
2022/11/19 02:09:14;;;;;;;29.87;16.97;;;;;;;;;;6187649;28;20046;-76
2022/11/19 02:12:21;;;;;;;35.60;17.33;;;;;;;;;;6198644;28;20049;-77
2022/11/19 02:15:31;;;;;;;31.05;17.65;;;;;;;;;;6205693;28;20049;-77
2022/11/19 02:18:50;;;;;;;34.17;17.75;;;;;;;;;;6187867;28;20462;-77
2022/11/19 02:22:09;;;;;;;33.08;16.08;;;;;;;;;;6204646;28;20033;-77
2022/11/19 02:25:29;;;;;;;35.38;17.35;;;;;;;;;;6203144;28;20081;-77
2022/11/19 02:28:29;;;;;;;34.47;18.20;;;;;;;;;;6177340;28;20501;-77
2022/11/19 02:31:50;;;;;;;32.55;16.77;;;;;;;;;;6187570;28;20023;-77
2022/11/19 02:34:53;;;;;;;34.05;16.63;;;;;;;;;;6186357;28;20490;-77
2022/11/19 02:38:03;;;;;;;34.08;17.60;;;;;;;;;;6201568;28;20052;-77
2022/11/19 02:47:58;;;;;;;24.92;15.13;;;;;;;;;;6201901;28;20058;-77
2022/11/19 02:51:00;;;;;;;32.40;16.77;;;;;;;;;;6199111;28;20101;-78
2022/11/19 02:54:03;;;;;;;33.33;17.60;;;;;;;;;;6184765;28;20416;-77
2022/11/19 02:57:03;;;;;;;26.70;15.20;;;;;;;;;;6200728;28;20045;-78
2022/11/19 03:06:49;;;;;;;32.03;18.15;;;;;;;;;;6186430;28;20062;-79
2022/11/19 03:09:53;;;;;;;36.47;18.03;;;;;;;;;;6185789;28;20499;-79
2022/11/19 03:12:57;;;;;;;35.42;17.15;;;;;;;;;;6202004;28;20081;-79
2022/11/19 03:19:30;;;;;;;29.80;17.25;;;;;;;;;;6199983;28;20046;-78
2022/11/19 03:22:36;;;;;;;39.85;19.05;;;;;;;;;;6180975;28;20022;-77
2022/11/19 03:25:38;;;;;;;36.22;17.30;;;;;;;;;;6201448;28;20501;-77
2022/11/19 03:28:39;;;;;;;34.53;17.73;;;;;;;;;;6195848;28;20011;-79
2022/11/19 03:31:41;;;;;;;35.17;17.40;;;;;;;;;;6184332;28;20114;-79
2022/11/19 03:34:43;;;;;;;30.33;16.65;;;;;;;;;;6201256;28;20037;-79
2022/11/19 03:37:45;;;;;;;28.90;17.13;;;;;;;;;;6201119;28;20041;-80
2022/11/19 03:40:46;;;;;;;34.30;18.70;;;;;;;;;;6200905;28;20097;-79
2022/11/19 03:43:49;;;;;;;38.43;18.37;;;;;;;;;;6200643;28;20036;-78
2022/11/19 03:46:52;;;;;;;33.30;16.40;;;;;;;;;;6199604;28;20390;-78
2022/11/19 03:49:56;;;;;;;30.70;16.13;;;;;;;;;;6200991;28;20041;-77
2022/11/19 03:52:56;;;;;;;34.55;18.35;;;;;;;;;;6181727;28;20022;-77
2022/11/19 03:55:58;;;;;;;31.60;16.07;;;;;;;;;;6199322;28;20029;-77
2022/11/19 03:58:59;;;;;;;38.00;17.00;;;;;;;;;;6200948;28;20101;-78
2022/11/19 04:02:01;;;;;;;25.70;16.07;;;;;;;;;;6199712;28;20023;-77
2022/11/19 04:05:01;;;;;;;30.55;16.27;;;;;;;;;;6198706;28;20367;-77
2022/11/19 04:08:01;;;;;;;32.57;18.53;;;;;;;;;;6195715;28;20054;-77
2022/11/19 04:11:02;;;;;;;31.53;17.03;;;;;;;;;;6181934;28;20021;-77
2022/11/19 04:14:02;;;;;;;39.80;22.57;;;;;;;;;;6180884;28;20050;-77
2022/11/19 04:17:02;;;;;;;40.03;20.90;;;;;;;;;;6198239;28;20509;-78
2022/11/19 04:20:03;;;;;;;36.03;20.40;;;;;;;;;;6198729;28;20061;-77
2022/11/19 04:23:03;;;;;;;33.30;19.23;;;;;;;;;;6199094;28;20025;-77
2022/11/19 04:26:03;;;;;;;37.28;21.38;;;;;;;;;;6198573;28;20438;-77
2022/11/19 04:29:04;;;;;;;43.23;25.03;;;;;;;;;;6197839;28;20018;-77
2022/11/19 04:32:04;;;;;;;38.57;22.63;;;;;;;;;;6196129;28;20011;-78
2022/11/19 04:35:04;;;;;;;40.27;20.27;;;;;;;;;;6198408;28;20010;-77
2022/11/19 04:38:05;;;;;;;38.53;20.20;;;;;;;;;;6181685;28;20019;-78
2022/11/19 04:41:05;;;;;;;39.72;22.33;;;;;;;;;;6197886;28;20451;-77
2022/11/19 04:44:05;;;;;;;58.17;27.83;;;;;;;;;;6180191;28;20014;-77
2022/11/19 04:47:05;;;;;;;44.10;21.83;;;;;;;;;;6178045;28;20371;-77
2022/11/19 04:50:06;;;;;;;37.77;19.53;;;;;;;;;;6196934;28;20026;-77
2022/11/19 04:53:06;;;;;;;42.10;21.27;;;;;;;;;;6197364;28;20068;-77
2022/11/19 04:56:06;;;;;;;36.60;19.67;;;;;;;;;;6196689;28;20030;-78
2022/11/19 04:59:06;;;;;;;40.13;20.43;;;;;;;;;;6197950;28;20030;-77
2022/11/19 05:02:07;;;;;;;50.23;25.73;;;;;;;;;;6180785;28;20037;-76
2022/11/19 05:05:07;;;;;;;43.35;22.02;;;;;;;;;;6197125;28;20379;-77
2022/11/19 05:08:07;;;;;;;38.17;21.87;;;;;;;;;;6179787;28;20096;-78
2022/11/19 05:11:07;;;;;;;41.67;21.53;;;;;;;;;;6197707;28;20517;-77
2022/11/19 05:14:08;;;;;;;34.60;19.45;;;;;;;;;;6198393;28;20053;-77
2022/11/19 05:17:08;;;;;;;37.08;19.02;;;;;;;;;;6182316;28;20018;-77
2022/11/19 05:20:08;;;;;;;34.57;19.27;;;;;;;;;;6199166;28;20520;-77
2022/11/19 05:23:08;;;;;;;30.57;18.00;;;;;;;;;;6199239;28;20029;-77
2022/11/19 05:26:08;;;;;;;38.80;19.43;;;;;;;;;;6197653;28;20467;-77
2022/11/19 05:29:09;;;;;;;35.30;18.98;;;;;;;;;;6197502;28;20016;-77
2022/11/19 05:32:09;;;;;;;37.40;21.03;;;;;;;;;;6180704;28;20333;-77
2022/11/19 05:35:09;;;;;;;35.38;19.42;;;;;;;;;;6180081;28;20106;-76
2022/11/19 05:38:09;;;;;;;41.03;24.37;;;;;;;;;;6198262;28;20422;-77
2022/11/19 05:41:10;;;;;;;40.20;21.53;;;;;;;;;;6197294;28;20090;-77
2022/11/19 05:44:10;;;;;;;44.43;21.43;;;;;;;;;;6197982;28;20011;-78
2022/11/19 05:47:10;;;;;;;47.00;23.20;;;;;;;;;;6192877;28;20026;-77
2022/11/19 05:50:10;;;;;;;52.50;26.43;;;;;;;;;;6198255;28;20015;-77
2022/11/19 05:53:11;;;;;;;57.37;29.00;;;;;;;;;;6179933;28;20022;-78
2022/11/19 05:56:11;;;;;;;47.33;25.23;;;;;;;;;;6196935;28;20692;-77
2022/11/19 05:59:11;;;;;;;42.90;24.97;;;;;;;;;;6197530;28;20102;-77
2022/11/19 06:02:11;;;;;;;57.50;26.90;;;;;;;;;;6179503;28;20022;-77
2022/11/19 06:05:11;;;;;;;58.70;32.17;;;;;;;;;;6196036;28;20019;-77
2022/11/19 06:08:12;;;;;;;72.63;36.67;;;;;;;;;;6181759;28;20015;-77
2022/11/19 06:11:46;;;;;;;59.50;28.90;;;;;;;;;;6200196;28;20014;-77
2022/11/19 06:14:32;;;;;;;50.55;24.60;;;;;;;;;;6201208;28;20061;-77
2022/11/19 06:17:32;;;;;;;48.97;26.17;;;;;;;;;;6202078;28;20022;-77
2022/11/19 06:20:32;;;;;;;53.87;26.07;;;;;;;;;;6200734;28;20378;-77
2022/11/19 06:23:32;;;;;;;39.60;21.73;;;;;;;;;;6201063;28;20474;-77
2022/11/19 06:26:33;;;;;;;38.45;21.02;;;;;;;;;;6201595;28;20023;-77
2022/11/19 06:29:33;;;;;;;38.50;19.83;;;;;;;;;;6201794;28;20097;-77
2022/11/19 06:32:33;;;;;;;40.92;19.77;;;;;;;;;;6196175;28;20093;-77
2022/11/19 06:35:33;;;;;;;46.53;23.63;;;;;;;;;;6203296;28;20041;-78
2022/11/19 06:38:34;;;;;;;47.23;23.67;;;;;;;;;;6184972;28;20517;-78
2022/11/19 06:41:35;;;;;;;37.97;20.50;;;;;;;;;;6182901;28;20026;-78
2022/11/19 06:44:35;;;;;;;39.22;19.13;;;;;;;;;;6199440;28;20363;-77
2022/11/19 06:47:36;;;;;;;37.38;20.08;;;;;;;;;;6200997;28;20430;-78
2022/11/19 06:50:36;;;;;;;37.57;21.00;;;;;;;;;;6201344;28;20053;-78
2022/11/19 06:53:36;;;;;;;35.03;19.33;;;;;;;;;;6182809;28;20037;-77
2022/11/19 06:56:36;;;;;;;34.03;17.83;;;;;;;;;;6199762;28;20073;-78
2022/11/19 06:59:37;;;;;;;37.83;19.52;;;;;;;;;;6183626;28;20057;-78
2022/11/19 07:02:38;;;;;;;41.07;20.23;;;;;;;;;;6200774;28;20261;-78
2022/11/19 07:05:38;;;;;;;35.27;20.77;;;;;;;;;;6183472;28;20128;-78
2022/11/19 07:08:38;;;;;;;42.87;22.40;;;;;;;;;;6198192;28;20407;-78
2022/11/19 07:11:38;;;;;;;43.53;22.03;;;;;;;;;;6198845;28;20064;-78
2022/11/19 07:14:38;;;;;;;40.42;21.85;;;;;;;;;;6198485;28;20440;-79
2022/11/19 07:17:40;;;;;;;43.00;22.37;;;;;;;;;;6200393;28;20010;-78
2022/11/19 07:20:40;;;;;;;41.75;22.95;;;;;;;;;;6199502;28;20050;-79
2022/11/19 07:23:40;;;;;;;45.63;22.27;;;;;;;;;;6168904;28;20159;-78
2022/11/19 07:26:40;;;;;;;42.35;22.13;;;;;;;;;;6200445;28;20348;-78
2022/11/19 07:29:40;;;;;;;40.70;21.02;;;;;;;;;;6200160;28;20023;-79
2022/11/19 07:32:41;;;;;;;45.23;23.23;;;;;;;;;;6199050;28;20021;-78
2022/11/19 07:35:41;;;;;;;52.30;27.03;;;;;;;;;;6198823;28;20374;-78
2022/11/19 07:38:41;;;;;;;46.75;23.65;;;;;;;;;;6199774;28;20021;-78
2022/11/19 07:45:01;;;;;;;43.33;22.95;;;;;;;;;;6200524;28;20390;-78
2022/11/19 07:48:02;;;;;;;46.75;24.42;;;;;;;;;;6183001;28;20022;-78
2022/11/19 07:51:02;;;;;;;42.53;21.50;;;;;;;;;;6180671;28;20092;-78
2022/11/19 07:54:02;;;;;;;33.47;19.20;;;;;;;;;;6200712;28;20019;-78
2022/11/19 07:57:03;;;;;;;36.83;20.93;;;;;;;;;;6200753;28;20026;-77
2022/11/19 08:00:04;;;;;;;34.23;18.90;;;;;;;;;;6199306;28;20390;-78
2022/11/19 08:03:04;;;;;;;38.03;21.43;;;;;;;;;;6198888;28;20042;-78
2022/11/19 08:06:06;;;;;;;41.33;22.93;;;;;;;;;;6199738;28;20308;-78
2022/11/19 08:09:06;;;;;;;41.17;23.00;;;;;;;;;;6199293;28;20020;-78
2022/11/19 08:12:06;;;;;;;39.17;22.07;;;;;;;;;;6200773;28;20033;-79
2022/11/19 08:15:07;;;;;;;39.63;22.45;;;;;;;;;;6183246;28;20030;-79
2022/11/19 08:18:11;;;;;;;41.10;21.63;;;;;;;;;;6199316;28;20057;-79
2022/11/19 08:21:11;;;;;;;50.83;25.05;;;;;;;;;;6199445;28;20019;-78
2022/11/19 08:24:12;;;;;;;42.87;22.97;;;;;;;;;;6199301;28;20072;-78
2022/11/19 08:27:12;;;;;;;44.97;27.00;;;;;;;;;;6199511;28;20386;-77
2022/11/19 08:30:12;;;;;;;39.03;21.93;;;;;;;;;;6200219;28;20099;-78
2022/11/19 08:33:13;;;;;;;36.03;19.77;;;;;;;;;;6198134;28;20032;-78
2022/11/19 08:36:13;;;;;;;32.87;18.40;;;;;;;;;;6197701;28;20248;-78
2022/11/19 08:39:13;;;;;;;46.03;24.90;;;;;;;;;;6198308;28;20015;-78
2022/11/19 08:45:34;;;;;;;36.33;19.40;;;;;;;;;;6193707;28;20058;-78
2022/11/19 08:48:34;;;;;;;34.22;18.40;;;;;;;;;;6198770;28;20026;-78
2022/11/19 08:51:34;;;;;;;29.10;16.67;;;;;;;;;;6181129;28;20057;-79
2022/11/19 08:54:35;;;;;;;32.57;16.17;;;;;;;;;;6198288;28;20463;-78
2022/11/19 08:57:35;;;;;;;29.83;17.00;;;;;;;;;;6198085;28;20082;-78
2022/11/19 09:00:36;;;;;;;28.95;16.00;;;;;;;;;;6199415;28;20026;-79
2022/11/19 09:03:36;;;;;;;19.63;11.73;;;;;;;;;;6200627;28;20461;-79
2022/11/19 09:06:36;;;;;;;20.27;11.80;;;;;;;;;;6197105;28;20482;-79
2022/11/19 09:09:37;;;;;;;20.17;11.20;;;;;;;;;;6198851;28;20029;-78
2022/11/19 09:12:37;;;;;;;22.30;13.50;;;;;;;;;;6198142;28;20023;-78
2022/11/19 09:15:37;;;;;;;18.03;11.97;;;;;;;;;;6188162;28;20395;-78
2022/11/19 09:18:38;;;;;;;20.97;12.63;;;;;;;;;;6196533;28;20046;-77
2022/11/19 09:21:39;;;;;;;23.23;12.18;;;;;;;;;;6197950;28;20104;-78
2022/11/19 09:24:39;;;;;;;20.48;12.57;;;;;;;;;;6196196;28;20524;-77
2022/11/19 09:27:39;;;;;;;30.30;16.40;;;;;;;;;;6195325;28;20045;-77
2022/11/19 09:30:39;;;;;;;19.93;13.10;;;;;;;;;;6179530;28;20101;-78
2022/11/19 09:33:41;;;;;;;18.17;10.63;;;;;;;;;;6197239;28;20085;-77
2022/11/19 09:36:41;;;;;;;16.70;10.60;;;;;;;;;;6196270;28;20077;-77
2022/11/19 09:39:41;;;;;;;19.30;10.25;;;;;;;;;;6196461;28;20479;-77
2022/11/19 09:42:50;;;;;;;19.87;10.40;;;;;;;;;;6196985;28;20045;-77
2022/11/19 09:46:09;;;;;;;15.90;10.85;;;;;;;;;;6202291;28;20025;-78
2022/11/19 09:49:25;;;;;;;19.30;11.68;;;;;;;;;;6202342;28;20048;-78
2022/11/19 09:52:27;;;;;;;16.80;10.60;;;;;;;;;;6201097;28;20025;-78
2022/11/19 09:55:35;;;;;;;16.63;10.85;;;;;;;;;;6201128;28;20451;-78
2022/11/19 09:58:38;;;;;;;16.83;10.60;;;;;;;;;;6181952;28;20045;-78
2022/11/19 10:01:38;;;;;;;20.38;11.32;;;;;;;;;;6183067;28;20463;-77
2022/11/19 10:04:38;;;;;;;17.05;10.88;;;;;;;;;;6200086;28;20088;-76
2022/11/19 10:07:48;;;;;;;19.63;10.17;;;;;;;;;;6181749;28;20315;-75
2022/11/19 10:11:07;;;;;;;17.45;9.80;;;;;;;;;;6199723;28;20287;-74
2022/11/19 10:14:16;;;;;;;16.65;10.00;;;;;;;;;;6197784;28;20409;-74
2022/11/19 10:17:35;;;;;;;20.58;11.57;;;;;;;;;;6198409;28;20444;-74
2022/11/19 10:20:48;;;;;;;25.33;12.50;;;;;;;;;;6196353;28;20053;-74
2022/11/19 10:23:48;;;;;;;20.75;12.02;;;;;;;;;;6180436;28;20406;-74
2022/11/19 10:26:57;;;;;;;40.22;19.15;;;;;;;;;;6198495;28;20486;-74
2022/11/19 10:29:58;;;;;;;19.10;10.63;;;;;;;;;;6169498;28;20378;-74
2022/11/19 10:33:00;;;;;;;32.90;17.73;;;;;;;;;;6197232;28;20386;-75
2022/11/19 10:36:03;;;;;;;32.47;15.38;;;;;;;;;;6196979;28;20029;-74
2022/11/19 10:39:14;;;;;;;19.23;11.90;;;;;;;;;;6195427;28;20486;-74
2022/11/19 10:42:23;;;;;;;23.35;13.50;;;;;;;;;;6197950;28;20604;-74
2022/11/19 10:45:25;;;;;;;27.23;14.35;;;;;;;;;;6197548;28;20030;-74
2022/11/19 10:48:49;;;;;;;21.08;12.45;;;;;;;;;;6176025;28;20447;-74
2022/11/19 10:51:49;;;;;;;21.95;12.38;;;;;;;;;;6184282;28;20425;-73
2022/11/19 10:54:51;;;;;;;27.23;14.07;;;;;;;;;;6194195;28;20152;-74
2022/11/19 10:57:58;;;;;;;22.25;13.23;;;;;;;;;;6194110;28;20102;-74
2022/11/19 11:00:59;;;;;;;24.90;14.27;;;;;;;;;;6178998;28;20044;-73
2022/11/19 11:04:10;;;;;;;33.88;17.65;;;;;;;;;;6181470;28;20519;-73
2022/11/19 11:07:10;;;;;;;30.40;15.20;;;;;;;;;;6180715;28;20053;-74
2022/11/19 11:10:31;;;;;;;44.30;22.37;;;;;;;;;;6175071;28;20027;-73
2022/11/19 11:16:54;;;;;;;33.92;15.18;;;;;;;;;;6193465;28;20109;-73
2022/11/19 11:19:59;;;;;;;38.67;18.42;;;;;;;;;;6198894;28;20072;-73
2022/11/19 11:23:04;;;;;;;55.38;24.95;;;;;;;;;;6198161;28;20550;-73
2022/11/19 11:26:11;;;;;;;27.73;15.57;;;;;;;;;;6193593;28;20581;-72
2022/11/19 11:29:11;;;;;;;60.08;28.20;;;;;;;;;;6196234;28;20134;-72
2022/11/19 11:32:27;;;;;;;43.85;24.25;;;;;;;;;;6195515;28;20018;-72
2022/11/19 11:35:32;;;;;;;46.47;20.75;;;;;;;;;;6195326;28;20038;-73
2022/11/19 11:38:39;;;;;;;34.30;19.08;;;;;;;;;;6196164;28;20028;-72
2022/11/19 11:41:41;;;;;;;42.30;21.00;;;;;;;;;;6197638;28;20010;-73
2022/11/19 11:44:55;;;;;;;41.53;19.45;;;;;;;;;;6178847;28;20064;-72
2022/11/19 11:47:56;;;;;;;41.78;22.23;;;;;;;;;;6195903;28;20037;-73
2022/11/19 11:50:56;;;;;;;56.93;28.00;;;;;;;;;;6195993;28;20076;-72
2022/11/19 11:54:16;;;;;;;38.47;21.20;;;;;;;;;;6197475;28;20025;-72
2022/11/19 11:57:18;;;;;;;30.58;18.63;;;;;;;;;;6191863;28;20034;-73
2022/11/19 12:00:30;;;;;;;32.50;18.05;;;;;;;;;;6194846;28;20352;-72
2022/11/19 12:03:32;;;;;;;37.08;19.52;;;;;;;;;;6196801;28;20022;-72
2022/11/19 12:06:37;;;;;;;33.97;19.17;;;;;;;;;;6196573;28;20045;-72
2022/11/19 12:09:44;;;;;;;33.70;17.83;;;;;;;;;;6196092;28;20085;-72
2022/11/19 12:12:53;;;;;;;38.20;19.60;;;;;;;;;;6194682;28;20024;-72
2022/11/19 12:15:59;;;;;;;45.70;24.48;;;;;;;;;;6193208;28;20026;-72
2022/11/19 12:19:18;;;;;;;27.77;15.27;;;;;;;;;;6189138;28;20458;-73
2022/11/19 12:22:37;;;;;;;41.25;22.13;;;;;;;;;;6194163;28;20033;-72
2022/11/19 12:25:42;;;;;;;44.90;24.85;;;;;;;;;;6193235;28;20033;-72
2022/11/19 12:28:48;;;;;;;36.42;18.85;;;;;;;;;;6192406;28;20017;-73
2022/11/19 12:31:57;;;;;;;34.97;17.90;;;;;;;;;;6192795;28;20105;-73
2022/11/19 12:34:57;;;;;;;37.20;19.67;;;;;;;;;;6193585;28;20113;-73
2022/11/19 12:38:10;;;;;;;33.00;20.67;;;;;;;;;;6176368;28;20026;-73
2022/11/19 12:41:29;;;;;;;43.78;25.20;;;;;;;;;;6191562;28;20420;-73
2022/11/19 12:44:51;;;;;;;42.10;24.73;;;;;;;;;;6191979;28;20045;-72
2022/11/19 12:48:14;;;;;;;44.33;24.60;;;;;;;;;;6191573;28;20060;-71
2022/11/19 12:51:33;;;;;;;62.30;33.80;;;;;;;;;;6193099;28;20482;-73
2022/11/19 12:58:18;;;;;;;58.38;29.17;;;;;;;;;;6189395;28;20334;-72
2022/11/19 13:01:20;;;;;;;47.60;25.63;;;;;;;;;;6189126;28;20465;-73
2022/11/19 13:04:23;;;;;;;52.75;28.27;;;;;;;;;;6191459;28;20018;-73
2022/11/19 13:07:26;;;;;;;48.58;26.02;;;;;;;;;;6191330;28;20330;-73
2022/11/19 13:10:34;;;;;;;42.85;21.27;;;;;;;;;;6191161;28;20022;-72
2022/11/19 13:13:36;;;;;;;41.78;24.60;;;;;;;;;;6188807;28;20158;-71
2022/11/19 13:16:36;;;;;;;48.65;24.83;;;;;;;;;;6188210;28;20121;-71
2022/11/19 13:19:37;;;;;;;47.97;25.80;;;;;;;;;;6190382;28;20500;-71
2022/11/19 13:22:41;;;;;;;56.33;29.25;;;;;;;;;;6190702;28;20073;-72
2022/11/19 13:25:43;;;;;;;64.30;30.60;;;;;;;;;;6190350;28;20018;-72
2022/11/19 13:28:49;;;;;;;55.95;27.20;;;;;;;;;;6191729;28;20057;-72
2022/11/19 13:31:55;;;;;;;46.28;25.05;;;;;;;;;;6192712;28;20018;-71
2022/11/19 13:34:55;;;;;;;38.08;20.95;;;;;;;;;;6192099;28;20469;-72
2022/11/19 13:37:58;;;;;;;36.40;20.13;;;;;;;;;;6191620;28;20413;-72
2022/11/19 13:41:01;;;;;;;48.53;27.05;;;;;;;;;;6193713;28;20505;-72
2022/11/19 13:47:25;;;;;;;39.35;22.50;;;;;;;;;;6190899;28;20027;-72
2022/11/19 13:50:33;;;;;;;45.58;25.73;;;;;;;;;;6188308;28;20117;-71
2022/11/19 13:53:37;;;;;;;58.50;31.05;;;;;;;;;;6188895;28;20427;-72
2022/11/19 13:56:48;;;;;;;33.65;20.58;;;;;;;;;;6192714;28;20529;-71
2022/11/19 13:59:49;;;;;;;38.30;19.63;;;;;;;;;;6190408;28;20124;-72
2022/11/19 14:02:52;;;;;;;26.00;14.90;;;;;;;;;;6192126;28;20030;-72
2022/11/19 14:06:07;;;;;;;39.85;20.70;;;;;;;;;;6192110;28;20050;-73
2022/11/19 14:09:07;;;;;;;28.50;16.27;;;;;;;;;;6192355;28;20360;-72
2022/11/19 14:12:19;;;;;;;30.47;17.70;;;;;;;;;;6193401;28;20015;-72
2022/11/19 14:29:06;;;;;;;35.58;19.88;;;;;;;;;;6190650;28;20494;-73
2022/11/19 14:32:06;;;;;;;46.10;21.47;;;;;;;;;;6197227;28;20037;-73
2022/11/19 14:35:12;;;;;;;33.70;17.13;;;;;;;;;;6196069;28;20022;-73
2022/11/19 14:38:18;;;;;;;32.53;16.05;;;;;;;;;;6196081;28;20029;-74
2022/11/19 14:41:22;;;;;;;31.75;16.25;;;;;;;;;;6196746;28;20031;-74
2022/11/19 14:44:25;;;;;;;33.72;16.90;;;;;;;;;;6195019;28;20041;-74
2022/11/19 14:47:25;;;;;;;68.28;30.27;;;;;;;;;;6195589;28;20018;-74
2022/11/19 14:50:27;;;;;;;63.63;31.20;;;;;;;;;;6176961;28;20493;-74
2022/11/19 14:53:27;;;;;;;49.10;26.45;;;;;;;;;;6195661;28;20026;-74
2022/11/19 14:56:28;;;;;;;51.53;23.95;;;;;;;;;;6177544;28;20030;-74
2022/11/19 14:59:48;;;;;;;62.33;30.33;;;;;;;;;;6195771;28;20034;-74
2022/11/19 15:02:50;;;;;;;58.88;29.23;;;;;;;;;;6194442;28;20501;-74
2022/11/19 15:05:50;;;;;;;49.97;27.02;;;;;;;;;;6195633;28;20080;-75
2022/11/19 15:08:52;;;;;;;58.97;27.70;;;;;;;;;;6180627;28;20026;-75
2022/11/19 15:11:55;;;;;;;66.03;34.00;;;;;;;;;;6197021;28;20577;-75
2022/11/19 15:15:04;;;;;;;60.08;30.23;;;;;;;;;;6179772;28;20080;-75
2022/11/19 15:18:23;;;;;;;81.07;35.60;;;;;;;;;;6177991;28;20049;-76
2022/11/19 15:21:31;;;;;;;70.40;34.78;;;;;;;;;;6194501;28;20106;-75
2022/11/19 15:24:46;;;;;;;61.05;31.27;;;;;;;;;;6197956;28;20045;-76
2022/11/19 15:28:04;;;;;;;61.15;31.83;;;;;;;;;;6195128;28;20025;-76
2022/11/19 15:31:04;;;;;;;52.22;24.65;;;;;;;;;;6194962;28;20023;-76
2022/11/19 15:34:23;;;;;;;50.37;26.67;;;;;;;;;;6196638;28;20015;-77
2022/11/19 15:37:32;;;;;;;54.90;27.52;;;;;;;;;;6185700;28;20050;-76
2022/11/19 15:40:33;;;;;;;53.20;26.95;;;;;;;;;;6178257;28;20033;-76
2022/11/19 15:43:39;;;;;;;46.30;27.13;;;;;;;;;;6198937;28;20463;-77
2022/11/19 15:46:43;;;;;;;50.83;27.15;;;;;;;;;;6196282;28;20030;-77
2022/11/19 15:49:44;;;;;;;57.08;29.55;;;;;;;;;;6196444;28;20022;-76
2022/11/19 15:53:00;;;;;;;54.90;27.40;;;;;;;;;;6180120;28;20497;-78
2022/11/19 15:56:02;;;;;;;46.45;24.75;;;;;;;;;;6180593;28;20395;-77
2022/11/19 15:59:03;;;;;;;48.83;25.70;;;;;;;;;;6198929;28;20030;-77
2022/11/19 16:02:05;;;;;;;46.93;22.77;;;;;;;;;;6199577;28;20113;-78
2022/11/19 16:05:06;;;;;;;45.88;25.10;;;;;;;;;;6202746;28;20292;-78
2022/11/19 16:08:07;;;;;;;39.73;22.43;;;;;;;;;;6198581;28;20526;-78
2022/11/19 16:17:53;;;;;;;44.67;23.55;;;;;;;;;;6198260;28;20046;-79
2022/11/19 16:20:53;;;;;;;43.07;24.60;;;;;;;;;;6184327;28;20125;-79
2022/11/19 16:27:21;;;;;;;40.03;23.55;;;;;;;;;;6198584;28;20022;-79
2022/11/19 16:30:23;;;;;;;37.45;19.98;;;;;;;;;;6181726;28;20418;-80
2022/11/19 16:33:23;;;;;;;;;;;;;;;;;;6200601;28;20454;-79
2022/11/19 16:36:23;;;;;;;39.35;19.75;;;;;;;;;;6197911;28;20333;-80
2022/11/19 16:39:25;;;;;;;36.70;19.23;;;;;;;;;;6202341;28;20018;-80
2022/11/19 16:42:27;;;;;;;39.70;20.17;;;;;;;;;;6196111;28;20356;-80
2022/11/19 16:45:27;;;;;;;;;;;;;;;;;;6200460;28;20064;-80
2022/11/19 16:48:53;;;;;;;42.53;21.02;;;;;;;;;;6199352;28;19940;-80
2022/11/19 16:51:54;;;;;;;56.95;28.13;;;;;;;;;;6180544;28;20031;-80
2022/11/19 16:54:54;;;;;;;49.10;24.10;;;;;;;;;;6178521;28;20421;-79
2022/11/19 16:57:56;;;;;;;43.55;22.42;;;;;;;;;;6198394;28;20077;-79
2022/11/19 17:00:58;;;;;;;44.25;22.70;;;;;;;;;;6196663;28;20026;-78
2022/11/19 17:04:01;;;;;;;46.28;22.75;;;;;;;;;;6198714;28;20088;-78
2022/11/19 17:07:01;;;;;;;38.65;21.02;;;;;;;;;;6197987;28;20073;-78
2022/11/19 17:10:20;;;;;;;41.60;21.03;;;;;;;;;;6194358;28;20022;-77
2022/11/19 17:13:20;;;;;;;40.90;20.92;;;;;;;;;;6193396;28;20021;-78
2022/11/19 17:16:21;;;;;;;43.15;21.85;;;;;;;;;;6195295;28;20026;-78
2022/11/19 17:19:31;;;;;;;43.87;21.27;;;;;;;;;;6199462;28;21447;-78
2022/11/19 17:22:33;;;;;;;37.60;17.98;;;;;;;;;;6199957;28;20018;-78
2022/11/19 17:25:33;;;;;;;;;;;;;;;;;;6198345;28;20049;-78
2022/11/19 17:28:45;;;;;;;37.58;20.40;;;;;;;;;;6195569;28;19918;-77
2022/11/19 17:31:45;;;;;;;;;;;;;;;;;;6175406;28;20011;-76
2022/11/19 17:34:47;;;;;;;51.60;25.35;;;;;;;;;;6193385;28;20000;-77
2022/11/19 17:37:48;;;;;;;59.03;31.92;;;;;;;;;;6184929;28;20034;-78
2022/11/19 17:40:48;;;;;;;67.80;36.67;;;;;;;;;;6191195;28;20037;-78
2022/11/19 17:47:07;;;;;;;53.25;26.88;;;;;;;;;;6196895;28;20026;-78
2022/11/19 17:50:08;;;;;;;47.90;22.80;;;;;;;;;;6194432;28;20030;-78
2022/11/19 17:53:08;;;;;;;42.55;20.73;;;;;;;;;;6181084;28;20258;-78
2022/11/19 17:56:19;;;;;;;39.65;20.35;;;;;;;;;;6196141;28;20033;-78
2022/11/19 17:59:19;;;;;;;38.22;22.35;;;;;;;;;;6197557;28;20061;-78
2022/11/19 18:02:21;;;;;;;40.17;20.17;;;;;;;;;;6198345;28;20444;-78
2022/11/19 18:05:22;;;;;;;39.90;20.92;;;;;;;;;;6179164;28;20026;-78
2022/11/19 18:08:22;;;;;;;40.80;20.17;;;;;;;;;;6185089;28;20038;-78
2022/11/19 18:11:24;;;;;;;41.57;20.07;;;;;;;;;;6200740;28;20041;-78
2022/11/19 18:14:24;;;;;;;37.88;19.75;;;;;;;;;;6186151;28;20021;-79
2022/11/19 18:17:24;;;;;;;47.73;21.67;;;;;;;;;;6182530;28;20018;-77
2022/11/19 18:20:24;;;;;;;53.67;23.10;;;;;;;;;;6182136;28;20022;-78
2022/11/19 18:23:24;;;;;;;47.47;24.63;;;;;;;;;;6182059;28;20027;-78
2022/11/19 18:26:25;;;;;;;47.17;22.33;;;;;;;;;;6187134;28;20014;-78
2022/11/19 18:29:28;;;;;;;61.87;27.87;;;;;;;;;;6199692;28;20011;-78
2022/11/19 18:32:28;;;;;;;48.05;23.95;;;;;;;;;;6196287;28;20110;-79
2022/11/19 18:35:31;;;;;;;56.40;25.20;;;;;;;;;;6184255;28;20022;-78
2022/11/19 18:38:32;;;;;;;53.47;26.45;;;;;;;;;;6206710;28;20026;-78
2022/11/19 18:41:33;;;;;;;55.10;27.58;;;;;;;;;;6205702;28;20042;-78
2022/11/19 18:44:33;;;;;;;54.00;26.07;;;;;;;;;;6202835;28;20121;-79
2022/11/19 18:47:33;;;;;;;56.40;26.53;;;;;;;;;;6200936;28;20033;-80
2022/11/19 18:50:33;;;;;;;53.63;25.77;;;;;;;;;;6205462;28;20014;-80
2022/11/19 18:53:34;;;;;;;57.17;27.38;;;;;;;;;;6187658;28;20025;-79